Tasinge Maersk — OUSX2 — position and weather

sailwx.info

Track history (hours):
 
Tides and Currents Weather Stations Pressure Air Temp Water Temp Dewpoint Dewpoint Depression Visibility Wind Speed Wind Dir Waves Ship Positions

Tasinge Maersk

Last reported at 2016-May-26 08:32 UTC. Time now 2016-May-29 11:36 UTC.
Position N 15°28' W 017°40'.

Length 191 m; draft 7.4 m.

Type: Cargo ship. MMSI: 220157000.

Date/timePositionNaut miles runAvg speedWind from/ knotsBaromVisibWave heightAir tempDewpointWater temp
2016-May-26 08:32N 15°28' W 017°40'10 8.6
2016-May-26 07:23N 15°18' W 017°40'28 8.5
2016-May-26 04:07N 14°51' W 017°40'218 4.5
2016-May-24 03:08N 11°50' W 015°34'54 3.4
2016-May-23 11:24N 11°44' W 016°29'911.1
2016-May-23 10:33N 11°44' W 016°38'1211.7
2016-May-23 09:34N 11°45' W 016°50'1410.8
2016-May-23 08:18N 11°49' W 017°03'810.8
2016-May-23 07:34N 11°55' W 017°08'1110.6
2016-May-23 06:33N 12°04' W 017°15'1110.7
2016-May-23 05:33N 12°13' W 017°21'1110.5
2016-May-23 04:28N 12°24' W 017°24'3110.5
2016-May-23 01:32N 12°55' W 017°25'1010.4
2016-May-23 00:33N 13°03' W 017°19'1110.6
2016-May-22 23:34N 13°11' W 017°12'1110.5
2016-May-22 22:34N 13°20' W 017°05'1110.5
2016-May-22 21:33N 13°28' W 016°59'24 3.2
2016-May-22 14:12N 13°27' W 016°34'0 0.0
2016-May-22 04:30N 13°27' W 016°34'0 0.0
2016-May-22 03:26N 13°27' W 016°34'0 0.0
2016-May-22 02:33N 13°27' W 016°34'0 0.0
2016-May-22 01:27N 13°27' W 016°34'0 0.0
2016-May-22 00:27N 13°27' W 016°34'0 0.0
2016-May-21 02:09N 13°27' W 016°34'0 0.0
2016-May-21 01:21N 13°27' W 016°34'0 0.0
2016-May-21 00:33N 13°27' W 016°34'0 0.0
2016-May-20 23:33N 13°27' W 016°34'0 0.0
2016-May-20 22:30N 13°27' W 016°34'0 0.0
2016-May-19 08:33N 13°27' W 016°34'0 0.0
2016-May-19 06:18N 13°27' W 016°34'0 0.0
2016-May-19 02:27N 13°27' W 016°34'0 0.0
2016-May-19 00:33N 13°27' W 016°34'0 0.0
2016-May-18 23:30N 13°27' W 016°34'0 0.0
2016-May-18 22:33N 13°27' W 016°34'0 0.0
2016-May-18 21:33N 13°27' W 016°34'0 0.0
2016-May-18 14:06N 13°27' W 016°34'0 0.0
2016-May-18 02:06N 13°27' W 016°34'0 0.0
2016-May-18 00:33N 13°27' W 016°34'0 0.0
2016-May-17 23:33N 13°27' W 016°34'0 0.0
2016-May-17 21:30N 13°27' W 016°34'0 0.0
2016-May-17 11:03N 13°27' W 016°34'0 0.0
2016-May-17 10:33N 13°27' W 016°34'1 0.4
2016-May-17 09:10N 13°27' W 016°34'1 1.7
2016-May-17 08:33N 13°28' W 016°34'5 4.6
2016-May-17 07:33N 13°32' W 016°35'8 8.2
2016-May-17 06:33N 13°34' W 016°43'8 7.2
2016-May-17 05:30N 13°32' W 016°50'7 7.8
2016-May-17 04:34N 13°32' W 016°58'10 9.7
2016-May-17 03:33N 13°32' W 017°08'7 7.3
2016-May-17 02:31N 13°31' W 017°16'7 7.6
2016-May-17 01:33N 13°34' W 017°09'10 9.9
2016-May-17 00:33N 13°44' W 017°09'9 9.3
2016-May-16 23:34N 13°53' W 017°12'10 9.6
2016-May-16 22:33N 14°02' W 017°16'9 9.4
2016-May-16 21:34N 14°09' W 017°23'10 9.6
2016-May-16 20:31N 14°17' W 017°29'9 9.4
2016-May-16 19:34N 14°23' W 017°36'9 9.0
2016-May-16 18:31N 14°31' W 017°40'9 9.7
2016-May-16 17:34N 14°41' W 017°40'10 9.6
2016-May-16 16:34N 14°50' W 017°40'11 9.4
2016-May-16 15:22N 15°01' W 017°36'11 9.2
2016-May-16 14:09N 15°11' W 017°31'19 9.6
2016-May-16 12:11N 15°28' W 017°23'6 9.4
2016-May-16 11:32N 15°34' W 017°21'9 9.1
2016-May-16 10:33N 15°42' W 017°17'9 9.2
2016-May-16 09:34N 15°50' W 017°13'  
Track history (hours):
 
Tides and Currents Weather Stations Pressure Air Temp Water Temp Dewpoint Dewpoint Depression Visibility Wind Speed Wind Dir Waves Ship Positions

Tasinge Maersk

Last reported at 2016-May-26 08:32 UTC. Time now 2016-May-29 11:36 UTC.
Position N 15°28' W 017°40'.

Length 191 m; draft 7.4 m.

Type: Cargo ship. MMSI: 220157000.

Date/timePositionNaut miles runAvg speedWind from/ knotsBaromVisibWave heightAir tempDewpointWater temp
2016-May-26 08:32N 15°28' W 017°40'10 8.6
2016-May-26 07:23N 15°18' W 017°40'28 8.5
2016-May-26 04:07N 14°51' W 017°40'218 4.5
2016-May-24 03:08N 11°50' W 015°34'54 3.4
2016-May-23 11:24N 11°44' W 016°29'911.1
2016-May-23 10:33N 11°44' W 016°38'1211.7
2016-May-23 09:34N 11°45' W 016°50'1410.8
2016-May-23 08:18N 11°49' W 017°03'810.8
2016-May-23 07:34N 11°55' W 017°08'1110.6
2016-May-23 06:33N 12°04' W 017°15'1110.7
2016-May-23 05:33N 12°13' W 017°21'1110.5
2016-May-23 04:28N 12°24' W 017°24'3110.5
2016-May-23 01:32N 12°55' W 017°25'1010.4
2016-May-23 00:33N 13°03' W 017°19'1110.6
2016-May-22 23:34N 13°11' W 017°12'1110.5
2016-May-22 22:34N 13°20' W 017°05'1110.5
2016-May-22 21:33N 13°28' W 016°59'24 3.2
2016-May-22 14:12N 13°27' W 016°34'0 0.0
2016-May-22 04:30N 13°27' W 016°34'0 0.0
2016-May-22 03:26N 13°27' W 016°34'0 0.0
2016-May-22 02:33N 13°27' W 016°34'0 0.0
2016-May-22 01:27N 13°27' W 016°34'0 0.0
2016-May-22 00:27N 13°27' W 016°34'0 0.0
2016-May-21 02:09N 13°27' W 016°34'0 0.0
2016-May-21 01:21N 13°27' W 016°34'0 0.0
2016-May-21 00:33N 13°27' W 016°34'0 0.0
2016-May-20 23:33N 13°27' W 016°34'0 0.0
2016-May-20 22:30N 13°27' W 016°34'0 0.0
2016-May-19 08:33N 13°27' W 016°34'0 0.0
2016-May-19 06:18N 13°27' W 016°34'0 0.0
2016-May-19 02:27N 13°27' W 016°34'0 0.0
2016-May-19 00:33N 13°27' W 016°34'0 0.0
2016-May-18 23:30N 13°27' W 016°34'0 0.0
2016-May-18 22:33N 13°27' W 016°34'0 0.0
2016-May-18 21:33N 13°27' W 016°34'0 0.0
2016-May-18 14:06N 13°27' W 016°34'0 0.0
2016-May-18 02:06N 13°27' W 016°34'0 0.0
2016-May-18 00:33N 13°27' W 016°34'0 0.0
2016-May-17 23:33N 13°27' W 016°34'0 0.0
2016-May-17 21:30N 13°27' W 016°34'0 0.0
2016-May-17 11:03N 13°27' W 016°34'0 0.0
2016-May-17 10:33N 13°27' W 016°34'1 0.4
2016-May-17 09:10N 13°27' W 016°34'1 1.7
2016-May-17 08:33N 13°28' W 016°34'5 4.6
2016-May-17 07:33N 13°32' W 016°35'8 8.2
2016-May-17 06:33N 13°34' W 016°43'8 7.2
2016-May-17 05:30N 13°32' W 016°50'7 7.8
2016-May-17 04:34N 13°32' W 016°58'10 9.7
2016-May-17 03:33N 13°32' W 017°08'7 7.3
2016-May-17 02:31N 13°31' W 017°16'7 7.6
2016-May-17 01:33N 13°34' W 017°09'10 9.9
2016-May-17 00:33N 13°44' W 017°09'9 9.3
2016-May-16 23:34N 13°53' W 017°12'10 9.6
2016-May-16 22:33N 14°02' W 017°16'9 9.4
2016-May-16 21:34N 14°09' W 017°23'10 9.6
2016-May-16 20:31N 14°17' W 017°29'9 9.4
2016-May-16 19:34N 14°23' W 017°36'9 9.0
2016-May-16 18:31N 14°31' W 017°40'9 9.7
2016-May-16 17:34N 14°41' W 017°40'10 9.6
2016-May-16 16:34N 14°50' W 017°40'11 9.4
2016-May-16 15:22N 15°01' W 017°36'11 9.2
2016-May-16 14:09N 15°11' W 017°31'19 9.6
2016-May-16 12:11N 15°28' W 017°23'6 9.4
2016-May-16 11:32N 15°34' W 017°21'9 9.1
2016-May-16 10:33N 15°42' W 017°17'9 9.2
2016-May-16 09:34N 15°50' W 017°13'  

Dump ship's entire track history